Saint Louis, MO (63119)

10:23 PM CDT on August 20, 2019 (GMT -0500)
Webster Groves | | Change Station
Active Advisory: Flood Warning

Elev 518 ft 38.60 °N, 90.35 °W | Updated 9 seconds ago

Clear
Clear
72 °F
Feels Like 71 °F
N
0
Wind Variable Wind from SSE
Gusts 0.0 mph

Today
High -- | Low -- °F
--% Chance of Precip.
Yesterday
High -- | Low -- °F
Precip. -- in
Pressure 29.99 in
Visibility 10.0 miles
Clouds Clear
Heat Index 71 °F
Dew Point 68 °F
Humidity 86%
Rainfall 0.00 in
Snow Depth Not available.
6:19 AM 7:49 PM
Waning Gibbous, 74% visible
METAR KCPS 210253Z 00000KT 10SM CLR 22/20 A3000 RMK AO2 SLP155 T02170200 53011
Pressure 29.99 in
Visibility 10.0 miles
Clouds Clear
Heat Index 71 °F
Dew Point 68 °F
Humidity 86%
Rainfall 0.00 in
Snow Depth Not available.
6:19 AM 7:49 PM
Waning Gibbous, 74% visible
METAR KCPS 210253Z 00000KT 10SM CLR 22/20 A3000 RMK AO2 SLP155 T02170200 53011

Get Your Daily Forecast Email!

Thanks for signing up!

Be on the lookout for a verification email in your inbox.

You'll start receiving severe weather alerts in your inbox..

×

10-Day Weather Forecast

Almanac

Astronomy

Aug. 20, 2019 Rise Set
Actual Time
Civil Twilight
Nautical Twilight
Astronomical Twilight
Moon
Length of Visible Light
Length of Day
Tomorrow will be .
, % of the Moon is Illuminated

Today's Extremes

State Highs State Lows

Community

WunderPhotos

Category 6

Welcome to Category 6. This is the collective home for Weather Underground's featured writeups by Dr. Jeff Masters (right), Bob Henson (left), Chris Burt, and other regular contributors.

Nearby

Air Quality

  Air Quality AQ Index Pollutant
Not available.

Snow Depth

Station Depth Elevation

Earthquake Activity

City Distance Mag. Time & Date
Minimum magnitude displayed is 2.5.

Coastal Water Temperatures

Place Temperature

Stations

Nearby Weather Stations

Station Location Temp. Windchill Dew Point Humidity Wind Precip. Elev Updated Type
                   

Watches & Warnings

Flood Warning
Issued: 9:02 PM CDT Aug. 20, 2019 – National Weather Service

The Flood Warning continues for
the Missouri River at St. Charles
* from Wednesday morning to Friday evening.
* At 8:30 PM Tuesday the stage was 24.4 feet.
* Flood stage is 25.0 feet.
* Minor flooding is forecast.
* The river is forecast to rise above flood stage by late tomorrow
morning and to crest near 25.3 feet by early Thursday morning. The
river is forecast to fall below flood stage by Thursday evening.
* Impact: at 25.0 feet... the right bank downstream overflows,
flooding agricultural bottomland. Near this stage, Missouri Route
h at island Road will be closed in both directions.

                   Fld latest 7 a.M. Forecast
location stg obs stg 08/21 08/22 08/23 08/24 08/25

Missouri River
St. Charles 25.0 24.44 24.9 25.3 24.5 23.7 23.6




Lat... Lon 3891 9033 3886 9018 3881 9017 3859 9072
      3865 9078